Главная страница
METAR-TAF:

METAR-TAF

Аэропорты :

Vamdrup

Кольдинг, Дания

широта: 55-26N, долгота: 009-20E, высота над уровнем моря: 44 м

Текущие метеонаблюдения

Эта сводка был подготовлена 52 минут назад, в 18:20 UTC
Ветер 2 Узел от южный
Температура 12°C
Влажность 82%
Давление 1013 hPa

METAR: EKVD 131820Z AUTO 19002KT //// ///////// 12/09 Q1013

Время: 21:12 (19:12 UTC)

Прогноз

Эта сводка был подготовлена 7 часа и 10 минут назад, в 12:02 UTC
Прогноз действительный с 13-го 12 UTC до 13-го 16 UTC
Ветер 10 Узел от юго-западный
Видимость 10 км и более
Отдельные облака на высоте 2000 фута
временами
С 13-го 12 UTC до 13-го 16 UTC
Отдельные облака на высоте 2000 фута, Кучево-дождевые.
ливневые дожди,

TAF: EKVD 131202Z 1312/1316 23010KT 9999 SCT020 TEMPO 1312/1316 SHRA SCT020CB

Метеонаблюдения и прогнозы для более 4000 аэропортов (сводки METAR и TAF).

Имеющиеся станции представлены на карте желтыми и красными точками.

Чтобы увидеть название станции, наведите на нее мышь.

Затем щелкните, чтобы увидеть метеонаблюдения и метеопрогнозы.

Управление картой: чтобы увеличить масштаб, щелкните зеленые кнопки с черным крестиком; чтобы уменьшить масштаб, щелкните зеленую кнопку с тире; для просмотра соседних карт щелкайте зеленые стрелки.


METAR-TAF: